createdAt,value
2018-05-25T00:01:07.298Z,19.40
2018-05-25T00:03:33.461Z,19.40
2018-05-25T00:05:59.779Z,19.40
2018-05-25T00:08:26.109Z,19.40
2018-05-25T00:10:52.509Z,19.30
2018-05-25T00:13:18.843Z,19.30
2018-05-25T00:15:45.959Z,19.20
2018-05-25T00:18:12.094Z,19.20
2018-05-25T00:20:38.219Z,19.20
2018-05-25T00:23:04.400Z,19.20
2018-05-25T00:25:30.745Z,19.20
2018-05-25T00:27:56.855Z,19.20
2018-05-25T00:30:23.162Z,19.40
2018-05-25T00:32:49.738Z,19.20
2018-05-25T00:35:16.033Z,19.20
2018-05-25T00:37:42.346Z,19.10
2018-05-25T00:40:08.669Z,19.10
2018-05-25T00:42:34.990Z,19.10
2018-05-25T00:45:01.311Z,19.10
2018-05-25T00:47:27.724Z,19.10
2018-05-25T00:49:54.073Z,19.10
2018-05-25T00:52:20.381Z,19.10
2018-05-25T00:54:58.889Z,19.20
2018-05-25T00:57:25.274Z,19.10
2018-05-25T00:59:51.619Z,19.20
2018-05-25T01:02:17.943Z,19.10
2018-05-25T01:04:44.264Z,19.10
2018-05-25T01:07:11.327Z,19.10
2018-05-25T01:09:37.650Z,19.10
2018-05-25T01:12:03.972Z,19.10
2018-05-25T01:14:30.358Z,19.10
2018-05-25T01:16:56.692Z,19.40
2018-05-25T01:19:23.871Z,19.00
2018-05-25T01:21:50.960Z,19.00
2018-05-25T01:24:17.306Z,19.00
2018-05-25T01:26:43.630Z,19.00
2018-05-25T01:29:09.961Z,19.00
2018-05-25T01:31:37.027Z,19.00
2018-05-25T01:34:03.359Z,19.00
2018-05-25T01:36:29.692Z,19.00
2018-05-25T01:38:56.008Z,19.00
2018-05-25T01:41:22.503Z,19.00
2018-05-25T01:43:48.845Z,19.00
2018-05-25T01:46:15.890Z,19.00
2018-05-25T01:48:42.299Z,19.00
2018-05-25T01:51:08.646Z,19.00
2018-05-25T01:53:34.970Z,19.00
2018-05-25T01:56:01.303Z,19.40
2018-05-25T01:58:27.614Z,18.90
2018-05-25T02:00:54.674Z,18.90
2018-05-25T02:03:20.985Z,18.90
2018-05-25T02:05:47.307Z,18.90
2018-05-25T02:08:13.555Z,18.90
2018-05-25T02:10:39.900Z,18.90
2018-05-25T02:13:06.203Z,18.90
2018-05-25T02:15:33.259Z,18.80
2018-05-25T02:17:59.631Z,18.90
2018-05-25T02:20:25.958Z,18.80
2018-05-25T02:22:52.283Z,18.80
2018-05-25T02:25:19.359Z,18.80
2018-05-25T02:27:46.403Z,18.80
2018-05-25T02:30:13.254Z,18.80
2018-05-25T02:32:40.113Z,18.80
2018-05-25T02:35:06.996Z,18.70
2018-05-25T02:37:33.098Z,18.70
2018-05-25T02:39:59.946Z,18.70
2018-05-25T02:42:26.805Z,18.70
2018-05-25T02:44:52.916Z,18.70
2018-05-25T02:47:19.025Z,18.80
2018-05-25T02:49:45.634Z,18.70
2018-05-25T02:52:11.753Z,18.70
2018-05-25T02:54:37.883Z,18.70
2018-05-25T02:57:04.011Z,18.70
2018-05-25T02:59:30.130Z,18.70
2018-05-25T03:01:56.272Z,18.70
2018-05-25T03:04:22.391Z,18.60
2018-05-25T03:06:48.706Z,18.70
2018-05-25T03:09:14.910Z,18.70
2018-05-25T03:11:41.298Z,18.90
2018-05-25T03:14:07.614Z,18.70
2018-05-25T03:16:33.925Z,18.70
2018-05-25T03:19:00.234Z,18.70
2018-05-25T03:21:27.306Z,18.70
2018-05-25T03:23:53.638Z,18.60
2018-05-25T03:26:20.711Z,18.70
2018-05-25T03:28:47.759Z,18.70
2018-05-25T03:31:14.628Z,18.70
2018-05-25T03:33:40.763Z,18.70
2018-05-25T03:36:06.871Z,18.60
2018-05-25T03:38:33.762Z,18.70
2018-05-25T03:40:59.858Z,19.00
2018-05-25T03:43:25.967Z,18.80
2018-05-25T03:45:52.095Z,18.70
2018-05-25T03:48:18.421Z,18.80
2018-05-25T03:50:45.519Z,18.80
2018-05-25T03:53:11.655Z,18.70
2018-05-25T03:55:37.761Z,18.80
2018-05-25T03:58:03.873Z,18.80
2018-05-25T04:00:43.086Z,18.80
2018-05-25T04:03:09.223Z,18.80
2018-05-25T04:05:36.067Z,18.80
2018-05-25T04:08:02.186Z,19.00
2018-05-25T04:10:28.299Z,18.80
2018-05-25T04:12:55.172Z,18.80
2018-05-25T04:15:21.286Z,18.80
2018-05-25T04:17:48.147Z,18.80
2018-05-25T04:20:15.105Z,18.80
2018-05-25T04:22:41.965Z,18.80
2018-05-25T04:25:08.838Z,18.80
2018-05-25T04:27:34.979Z,18.80
2018-05-25T04:30:01.143Z,19.00
2018-05-25T04:32:27.253Z,18.90
2018-05-25T04:34:53.440Z,18.90
2018-05-25T04:37:19.571Z,18.90
2018-05-25T04:39:45.713Z,18.90
2018-05-25T04:42:11.833Z,18.60
2018-05-25T04:44:38.147Z,18.90
2018-05-25T04:47:04.498Z,19.10
2018-05-25T04:49:30.860Z,19.00
2018-05-25T04:51:57.176Z,19.00
2018-05-25T04:54:23.586Z,19.00
2018-05-25T04:56:50.463Z,19.00
2018-05-25T04:59:16.574Z,19.00
2018-05-25T05:01:43.031Z,19.00
2018-05-25T05:04:09.150Z,19.00
2018-05-25T05:06:35.272Z,18.90
2018-05-25T05:09:01.394Z,19.00
2018-05-25T05:11:27.525Z,18.90
2018-05-25T05:13:53.659Z,18.90
2018-05-25T05:16:20.707Z,19.00
2018-05-25T05:18:47.766Z,19.00
2018-05-25T05:21:14.612Z,19.00
2018-05-25T05:23:40.722Z,19.00
2018-05-25T05:26:06.862Z,19.10
2018-05-25T05:28:33.024Z,19.10
2018-05-25T05:30:59.152Z,19.20
2018-05-25T05:33:26.225Z,19.20
2018-05-25T05:35:52.351Z,19.50
2018-05-25T05:38:18.475Z,19.30
2018-05-25T05:40:44.608Z,19.40
2018-05-25T05:43:10.919Z,19.70
2018-05-25T05:45:38.076Z,19.60
2018-05-25T05:48:04.941Z,19.70
2018-05-25T05:50:31.939Z,19.80
2018-05-25T05:52:58.067Z,19.80
2018-05-25T05:55:24.263Z,19.90
2018-05-25T05:57:50.380Z,20.00
2018-05-25T06:00:16.495Z,20.10
2018-05-25T06:02:42.611Z,20.10
2018-05-25T06:05:09.479Z,20.10
2018-05-25T06:07:35.811Z,20.20
2018-05-25T06:10:02.189Z,20.20
2018-05-25T06:12:28.569Z,20.60
2018-05-25T06:14:55.559Z,20.40
2018-05-25T06:17:21.896Z,20.40
2018-05-25T06:19:51.688Z,20.60
2018-05-25T06:22:17.994Z,20.70
2018-05-25T06:24:45.079Z,21.00
2018-05-25T06:27:12.135Z,21.10
2018-05-25T06:29:38.983Z,21.20
2018-05-25T06:32:05.642Z,21.10
2018-05-25T06:34:32.059Z,21.20
2018-05-25T06:37:02.279Z,21.40
2018-05-25T06:39:28.644Z,21.50
2018-05-25T06:41:54.995Z,21.90
2018-05-25T06:44:21.346Z,21.70
2018-05-25T06:46:47.658Z,21.80
2018-05-25T06:49:14.084Z,21.80
2018-05-25T06:51:41.938Z,22.00
2018-05-25T06:54:08.266Z,22.10
2018-05-25T06:56:34.589Z,22.20
2018-05-25T06:59:00.937Z,22.40
2018-05-25T07:01:27.388Z,22.40
2018-05-25T07:03:57.476Z,22.40
2018-05-25T07:06:24.593Z,22.80
2018-05-25T07:08:50.928Z,22.80
2018-05-25T07:11:17.284Z,23.00
2018-05-25T07:13:43.614Z,23.20
2018-05-25T07:16:09.912Z,23.30
2018-05-25T07:18:36.242Z,23.60
2018-05-25T07:21:02.597Z,23.80
2018-05-25T07:23:28.948Z,24.00
2018-05-25T07:25:55.259Z,24.30
2018-05-25T07:28:21.590Z,24.80
2018-05-25T07:30:47.912Z,25.60
2018-05-25T07:33:14.235Z,26.50
2018-05-25T07:35:40.589Z,27.80
2018-05-25T07:38:07.341Z,29.10
2018-05-25T07:40:33.663Z,30.00
2018-05-25T07:42:59.999Z,30.30
2018-05-25T07:45:26.374Z,30.30
2018-05-25T07:47:53.459Z,32.30
2018-05-25T07:50:19.783Z,32.20
2018-05-25T07:52:46.135Z,33.70
2018-05-25T07:55:12.455Z,34.80
2018-05-25T07:57:38.799Z,35.80
2018-05-25T08:00:05.145Z,36.60
2018-05-25T08:02:37.679Z,37.90
2018-05-25T08:05:03.828Z,37.80
2018-05-25T08:07:29.954Z,38.60
2018-05-25T08:09:56.104Z,38.10
2018-05-25T08:12:22.253Z,37.50
2018-05-25T08:14:48.371Z,37.50
2018-05-25T08:17:15.242Z,36.70
2018-05-25T08:22:13.331Z,36.80
2018-05-25T08:24:39.484Z,37.30
2018-05-25T08:27:05.679Z,37.00
2018-05-25T08:29:31.795Z,35.70
2018-05-25T08:31:57.953Z,34.30
2018-05-25T08:34:24.262Z,33.20
2018-05-25T08:36:51.117Z,31.20
2018-05-25T08:39:17.983Z,30.50
2018-05-25T08:41:44.132Z,30.50
2018-05-25T08:44:10.251Z,29.90
2018-05-25T08:46:37.103Z,29.00
2018-05-25T08:49:03.962Z,28.70
2018-05-25T08:51:30.801Z,28.40
2018-05-25T08:53:57.695Z,28.00
2018-05-25T08:56:23.823Z,28.00
2018-05-25T08:58:50.689Z,27.50
2018-05-25T09:01:16.859Z,27.40
2018-05-25T09:03:42.994Z,27.40
2018-05-25T09:06:09.123Z,27.30
2018-05-25T09:08:35.240Z,26.90
2018-05-25T09:11:01.401Z,27.20
2018-05-25T09:13:28.662Z,27.30
2018-05-25T09:15:54.867Z,27.30
2018-05-25T09:18:21.795Z,27.20
2018-05-25T09:20:47.906Z,27.20
2018-05-25T09:23:14.045Z,27.10
2018-05-25T09:25:40.176Z,27.00
2018-05-25T09:28:06.303Z,27.00
2018-05-25T09:30:32.460Z,26.90
2018-05-25T09:32:58.577Z,27.10
2018-05-25T09:35:24.730Z,26.90
2018-05-25T09:37:51.615Z,26.60
2018-05-25T09:40:17.756Z,26.60
2018-05-25T09:42:43.871Z,26.50
2018-05-25T09:45:10.021Z,26.40
2018-05-25T09:47:36.179Z,26.20
2018-05-25T09:50:02.312Z,26.10
2018-05-25T09:52:28.437Z,26.00
2018-05-25T09:54:54.547Z,25.90
2018-05-25T09:57:20.684Z,25.70
2018-05-25T10:02:43.359Z,25.50
2018-05-25T10:05:10.208Z,25.30
2018-05-25T10:07:36.307Z,25.20
2018-05-25T10:10:02.440Z,25.20
2018-05-25T10:12:28.587Z,25.10
2018-05-25T10:14:54.674Z,25.10
2018-05-25T10:17:20.770Z,25.00
2018-05-25T10:19:46.884Z,24.70
2018-05-25T10:22:12.979Z,24.40
2018-05-25T10:24:39.079Z,24.10
2018-05-25T10:27:05.178Z,23.90
2018-05-25T10:29:31.271Z,23.80
2018-05-25T10:31:57.371Z,23.80
2018-05-25T10:34:23.479Z,23.40
2018-05-25T10:36:50.441Z,22.80
2018-05-25T10:39:16.552Z,22.80
2018-05-25T10:41:42.655Z,22.60
2018-05-25T10:44:10.980Z,22.40
2018-05-25T10:46:37.289Z,22.10
2018-05-25T10:49:03.594Z,21.90
2018-05-25T10:51:29.894Z,21.80
2018-05-25T10:53:56.210Z,21.60
2018-05-25T10:56:22.521Z,21.50
2018-05-25T10:58:48.840Z,21.30
2018-05-25T11:01:19.485Z,21.30
2018-05-25T11:03:45.821Z,21.30
2018-05-25T11:06:12.162Z,21.30
2018-05-25T11:08:38.459Z,21.40
2018-05-25T11:11:04.890Z,21.50
2018-05-25T11:13:31.210Z,21.60
2018-05-25T11:15:57.563Z,21.60
2018-05-25T11:18:26.572Z,21.70
2018-05-25T11:20:52.916Z,21.80
2018-05-25T11:23:19.219Z,21.90
2018-05-25T11:25:45.616Z,22.10
2018-05-25T11:28:11.911Z,22.00
2018-05-25T11:30:38.211Z,22.10
2018-05-25T11:33:04.663Z,22.20
2018-05-25T11:35:31.021Z,22.30
2018-05-25T11:37:59.517Z,22.30
2018-05-25T11:40:26.351Z,22.40
2018-05-25T11:42:53.422Z,22.50
2018-05-25T11:45:20.279Z,22.50
2018-05-25T11:47:47.134Z,22.60
2018-05-25T11:50:13.283Z,22.60
2018-05-25T11:52:39.404Z,22.70
2018-05-25T11:55:10.194Z,22.80
2018-05-25T11:57:36.425Z,22.80
2018-05-25T12:00:02.632Z,22.90
2018-05-25T12:02:28.800Z,23.00
2018-05-25T12:04:55.718Z,23.20
2018-05-25T12:07:21.847Z,23.20
2018-05-25T12:09:47.943Z,23.40
2018-05-25T12:12:17.803Z,23.50
2018-05-25T12:14:44.711Z,24.00
2018-05-25T12:17:10.827Z,24.00
2018-05-25T12:19:37.675Z,24.40
2018-05-25T12:22:04.576Z,24.50
2018-05-25T12:24:30.703Z,24.50
2018-05-25T12:26:57.574Z,24.60
2018-05-25T12:29:28.430Z,24.60
2018-05-25T12:31:55.287Z,24.50
2018-05-25T12:34:21.407Z,24.50
2018-05-25T12:36:47.573Z,24.60
2018-05-25T12:39:16.639Z,24.60
2018-05-25T12:41:42.755Z,24.70
2018-05-25T12:44:08.883Z,24.90
2018-05-25T12:46:35.025Z,24.60
2018-05-25T12:49:04.953Z,24.60
2018-05-25T12:51:31.051Z,24.70
2018-05-25T12:53:57.159Z,24.70
2018-05-25T12:56:23.263Z,24.60
2018-05-25T12:58:49.394Z,24.60
2018-05-25T13:01:15.499Z,24.60
2018-05-25T13:03:42.346Z,24.70
2018-05-25T13:06:09.243Z,24.70
2018-05-25T13:08:35.362Z,24.70
2018-05-25T13:11:01.811Z,24.70
2018-05-25T13:13:28.128Z,24.70
2018-05-25T13:15:54.440Z,24.90
2018-05-25T13:18:20.766Z,25.00
2018-05-25T13:20:47.104Z,25.10
2018-05-25T13:23:13.423Z,24.90
2018-05-25T13:25:40.528Z,25.10
2018-05-25T13:28:06.866Z,25.10
2018-05-25T13:30:33.241Z,25.10
2018-05-25T13:32:59.530Z,25.00
2018-05-25T13:35:25.924Z,25.10
2018-05-25T13:37:52.334Z,25.20
2018-05-25T13:40:18.642Z,25.20
2018-05-25T13:42:45.677Z,25.30
2018-05-25T13:45:11.799Z,25.50
2018-05-25T13:47:38.072Z,25.40
2018-05-25T13:50:04.434Z,25.40
2018-05-25T13:52:30.722Z,25.50
2018-05-25T13:54:57.078Z,25.50
2018-05-25T13:57:23.415Z,25.50
2018-05-25T13:59:51.157Z,25.50
2018-05-25T14:02:18.519Z,25.50
2018-05-25T14:04:45.424Z,25.50
2018-05-25T14:07:11.537Z,25.40
2018-05-25T14:09:37.685Z,25.40
2018-05-25T14:12:03.868Z,25.30
2018-05-25T14:14:30.057Z,25.30
2018-05-25T14:16:56.324Z,25.30
2018-05-25T14:19:22.663Z,25.10
2018-05-25T14:21:48.808Z,25.30
2018-05-25T14:24:15.141Z,25.30
2018-05-25T14:26:41.255Z,25.30
2018-05-25T14:29:07.603Z,25.30
2018-05-25T14:31:34.748Z,25.30
2018-05-25T14:34:00.831Z,25.30
2018-05-25T14:36:26.940Z,25.30
2018-05-25T14:38:53.858Z,25.40
2018-05-25T14:41:20.151Z,25.40
2018-05-25T14:43:47.138Z,25.50
2018-05-25T14:46:13.279Z,25.40
2018-05-25T14:48:39.370Z,25.60
2018-05-25T14:51:05.523Z,26.00
2018-05-25T14:53:32.433Z,25.80
2018-05-25T14:55:58.599Z,25.70
2018-05-25T14:58:24.728Z,25.80
2018-05-25T15:00:51.027Z,25.90
2018-05-25T15:03:20.803Z,25.90
2018-05-25T15:05:47.112Z,26.10
2018-05-25T15:08:14.259Z,26.00
2018-05-25T15:10:40.390Z,26.10
2018-05-25T15:13:06.683Z,26.00
2018-05-25T15:15:34.495Z,26.20
2018-05-25T15:18:00.821Z,25.90
2018-05-25T15:20:30.134Z,25.90
2018-05-25T15:22:56.247Z,25.90
2018-05-25T15:25:22.547Z,25.90
2018-05-25T15:27:48.923Z,25.90
2018-05-25T15:30:15.267Z,25.90
2018-05-25T15:32:41.770Z,25.80
2018-05-25T15:35:07.973Z,25.80
2018-05-25T15:37:34.295Z,25.70
2018-05-25T15:40:00.610Z,25.80
2018-05-25T15:42:26.906Z,25.70
2018-05-25T15:44:53.200Z,25.60
2018-05-25T15:47:20.252Z,25.60
2018-05-25T15:49:46.587Z,25.60
2018-05-25T15:52:12.915Z,25.50
2018-05-25T15:54:39.213Z,25.60
2018-05-25T15:57:05.598Z,25.60
2018-05-25T15:59:32.009Z,25.50
2018-05-25T16:01:58.141Z,25.40
2018-05-25T16:04:25.201Z,25.30
2018-05-25T16:06:51.625Z,25.20
2018-05-25T16:09:18.715Z,25.20
2018-05-25T16:11:45.054Z,25.20
2018-05-25T16:14:11.388Z,25.20
2018-05-25T16:16:38.467Z,25.20
2018-05-25T16:19:04.696Z,25.20
2018-05-25T16:21:30.803Z,25.30
2018-05-25T16:23:56.947Z,25.20
2018-05-25T16:26:23.337Z,25.20
2018-05-25T16:28:49.516Z,25.30
2018-05-25T16:31:15.795Z,25.20
2018-05-25T16:33:42.079Z,25.10
2018-05-25T16:36:08.430Z,25.20
2018-05-25T16:38:34.822Z,25.30
2018-05-25T16:41:01.124Z,25.10
2018-05-25T16:43:28.211Z,25.00
2018-05-25T16:45:54.621Z,24.70
2018-05-25T16:48:20.982Z,25.10
2018-05-25T16:50:47.681Z,25.00
2018-05-25T16:53:14.730Z,25.00
2018-05-25T16:55:41.084Z,24.90
2018-05-25T16:58:07.435Z,24.90
2018-05-25T17:00:33.774Z,24.90
2018-05-25T17:03:00.084Z,24.90
2018-05-25T17:05:26.443Z,24.90
2018-05-25T17:07:52.923Z,24.90
2018-05-25T17:10:20.189Z,24.80
2018-05-25T17:12:46.566Z,24.90
2018-05-25T17:15:12.978Z,24.80
2018-05-25T17:17:39.299Z,24.80
2018-05-25T17:20:05.629Z,24.80
2018-05-25T17:22:32.683Z,24.80
2018-05-25T17:24:59.010Z,24.80
2018-05-25T17:27:26.099Z,24.80
2018-05-25T17:29:52.520Z,24.80
2018-05-25T17:32:18.931Z,24.80
2018-05-25T17:34:45.552Z,24.80
2018-05-25T17:37:11.679Z,24.80
2018-05-25T17:39:38.786Z,24.80
2018-05-25T17:42:04.958Z,24.80
2018-05-25T17:44:31.187Z,24.30
2018-05-25T17:46:58.247Z,24.70
2018-05-25T17:49:24.587Z,24.70
2018-05-25T17:51:50.901Z,24.70
2018-05-25T17:54:17.251Z,24.70
2018-05-25T17:56:43.560Z,24.70
2018-05-25T17:59:09.946Z,24.70
2018-05-25T18:01:37.088Z,24.60
2018-05-25T18:04:03.379Z,24.60
2018-05-25T18:06:29.698Z,24.60
2018-05-25T18:08:56.009Z,24.60
2018-05-25T18:11:22.352Z,24.50
2018-05-25T18:13:48.667Z,24.50
2018-05-25T18:16:15.995Z,24.40
2018-05-25T18:18:42.095Z,24.40
2018-05-25T18:21:08.395Z,24.30
2018-05-25T18:23:34.975Z,24.30
2018-05-25T18:26:01.281Z,24.30
2018-05-25T18:28:27.592Z,24.30
2018-05-25T18:30:53.916Z,24.20
2018-05-25T18:33:20.375Z,24.30
2018-05-25T18:35:46.709Z,24.30
2018-05-25T18:38:13.000Z,24.20
2018-05-25T18:40:39.292Z,24.20
2018-05-25T18:43:05.616Z,24.10
2018-05-25T18:45:31.966Z,24.00
2018-05-25T18:47:58.269Z,24.00
2018-05-25T18:50:25.275Z,23.90
2018-05-25T18:52:51.578Z,23.90
2018-05-25T18:55:17.907Z,23.90
2018-05-25T18:57:44.216Z,23.90
2018-05-25T19:00:11.275Z,23.80
2018-05-25T19:02:37.651Z,23.80
2018-05-25T19:05:06.309Z,23.80
2018-05-25T19:07:32.592Z,23.70
2018-05-25T19:09:59.613Z,23.70
2018-05-25T19:12:25.766Z,23.60
2018-05-25T19:14:51.830Z,23.60
2018-05-25T19:17:17.943Z,23.50
2018-05-25T19:19:44.122Z,23.50
2018-05-25T19:22:10.319Z,23.50
2018-05-25T19:24:36.474Z,23.70
2018-05-25T19:27:03.363Z,23.40
2018-05-25T19:29:29.464Z,23.40
2018-05-25T19:31:56.440Z,23.30
2018-05-25T19:34:22.547Z,23.30
2018-05-25T19:36:48.653Z,23.30
2018-05-25T19:39:14.762Z,23.20
2018-05-25T19:41:40.876Z,23.20
2018-05-25T19:44:06.986Z,23.20
2018-05-25T19:46:33.064Z,23.40
2018-05-25T19:48:59.169Z,23.10
2018-05-25T19:51:26.111Z,23.00
2018-05-25T19:53:52.207Z,23.00
2018-05-25T19:56:18.416Z,23.00
2018-05-25T19:58:45.259Z,22.90
2018-05-25T20:01:12.121Z,22.80
2018-05-25T20:03:38.955Z,22.80
2018-05-25T20:06:05.132Z,22.90
2018-05-25T20:08:31.988Z,22.70
2018-05-25T20:10:58.875Z,22.70
2018-05-25T20:13:25.044Z,22.60
2018-05-25T20:15:51.321Z,22.70
2018-05-25T20:18:17.440Z,22.60
2018-05-25T20:20:44.315Z,22.60
2018-05-25T20:23:10.621Z,22.50
2018-05-25T20:25:36.730Z,22.60
2018-05-25T20:28:02.849Z,22.50
2018-05-25T20:30:28.963Z,22.50
2018-05-25T20:32:55.833Z,22.40
2018-05-25T20:35:22.007Z,22.40
2018-05-25T20:37:48.107Z,22.40
2018-05-25T20:40:15.019Z,22.30
2018-05-25T20:42:41.139Z,22.30
2018-05-25T20:45:07.234Z,22.30
2018-05-25T20:47:34.108Z,22.30
2018-05-25T20:50:00.227Z,22.30
2018-05-25T20:52:27.075Z,22.20
2018-05-25T20:54:53.151Z,22.20
2018-05-25T20:57:19.331Z,22.10
2018-05-25T20:59:45.546Z,22.00
2018-05-25T21:02:11.650Z,22.00
2018-05-25T21:04:37.772Z,22.00
2018-05-25T21:07:04.057Z,21.90
2018-05-25T21:09:30.362Z,21.90
2018-05-25T21:11:56.824Z,21.90
2018-05-25T21:14:22.986Z,21.80
2018-05-25T21:16:49.118Z,21.80
2018-05-25T21:19:15.415Z,21.80
2018-05-25T21:21:41.749Z,21.90
2018-05-25T21:24:08.027Z,21.70
2018-05-25T21:26:34.356Z,21.70
2018-05-25T21:29:01.412Z,21.50
2018-05-25T21:31:28.117Z,21.70
2018-05-25T21:33:54.429Z,21.50
2018-05-25T21:36:20.912Z,21.30
2018-05-25T21:38:47.212Z,21.50
2018-05-25T21:41:14.295Z,21.40
2018-05-25T21:43:40.665Z,21.10
2018-05-25T21:46:06.976Z,21.30
2018-05-25T21:48:33.086Z,21.40
2018-05-25T21:51:00.131Z,21.20
2018-05-25T21:53:26.251Z,21.10
2018-05-25T21:55:52.554Z,21.10
2018-05-25T21:58:18.974Z,21.30
2018-05-25T22:00:45.311Z,21.10
2018-05-25T22:03:11.801Z,21.00
2018-05-25T22:05:38.115Z,21.00
2018-05-25T22:08:04.832Z,21.00
2018-05-25T22:10:31.213Z,20.90
2018-05-25T22:12:58.459Z,20.80
2018-05-25T22:15:25.544Z,20.80
2018-05-25T22:17:51.820Z,20.80
2018-05-25T22:20:17.988Z,20.70
2018-05-25T22:22:44.424Z,20.70
2018-05-25T22:25:11.060Z,20.70
2018-05-25T22:27:38.236Z,20.60
2018-05-25T22:30:04.480Z,20.60
2018-05-25T22:32:30.750Z,20.60
2018-05-25T22:34:57.664Z,20.60
2018-05-25T22:37:23.907Z,20.50
2018-05-25T22:39:50.042Z,20.50
2018-05-25T22:42:28.417Z,20.50
2018-05-25T22:45:06.840Z,20.40
2018-05-25T22:47:45.968Z,20.40
2018-05-25T22:50:24.315Z,20.30
2018-05-25T22:52:57.277Z,20.30
2018-05-25T22:55:23.399Z,20.30
2018-05-25T22:57:49.531Z,20.30
2018-05-25T23:00:15.651Z,20.40
2018-05-25T23:02:41.756Z,20.20
2018-05-25T23:05:09.979Z,20.10
2018-05-25T23:07:36.258Z,20.10
2018-05-25T23:10:02.408Z,20.10
2018-05-25T23:12:28.719Z,20.10
2018-05-25T23:14:55.050Z,19.90
2018-05-25T23:17:21.362Z,20.00
2018-05-25T23:19:47.851Z,20.20
2018-05-25T23:22:14.163Z,20.00
2018-05-25T23:24:40.488Z,19.90
2018-05-25T23:27:06.851Z,19.90
2018-05-25T23:29:33.186Z,19.80
2018-05-25T23:32:00.247Z,19.80
2018-05-25T23:34:26.548Z,19.80
2018-05-25T23:36:52.701Z,19.70
2018-05-25T23:39:19.051Z,19.70
2018-05-25T23:41:45.159Z,19.70
2018-05-25T23:44:11.506Z,19.70
2018-05-25T23:46:37.875Z,19.70
2018-05-25T23:49:04.209Z,19.60
2018-05-25T23:51:30.508Z,19.60
2018-05-25T23:53:56.842Z,19.60
2018-05-25T23:56:23.175Z,19.60
2018-05-25T23:58:49.470Z,19.50
